sensor_id;sensor_type;location;lat;lon;timestamp;P1;durP1;ratioP1;P2;durP2;ratioP2
12703;SDS011;6416;52.182;7.650;2022-07-10T00:01:41;0.50;;;0.50;;
12703;SDS011;6416;52.182;7.650;2022-07-10T00:04:06;0.50;;;0.50;;
12703;SDS011;6416;52.182;7.650;2022-07-10T00:06:32;0.40;;;0.40;;
12703;SDS011;6416;52.182;7.650;2022-07-10T00:08:57;0.50;;;0.45;;
12703;SDS011;6416;52.182;7.650;2022-07-10T00:11:23;0.35;;;0.35;;
12703;SDS011;6416;52.182;7.650;2022-07-10T00:13:48;0.30;;;0.30;;
12703;SDS011;6416;52.182;7.650;2022-07-10T00:16:14;0.50;;;0.40;;
12703;SDS011;6416;52.182;7.650;2022-07-10T00:18:39;0.40;;;0.40;;
12703;SDS011;6416;52.182;7.650;2022-07-10T00:21:05;0.40;;;0.40;;
12703;SDS011;6416;52.182;7.650;2022-07-10T00:23:30;0.63;;;0.57;;
12703;SDS011;6416;52.182;7.650;2022-07-10T00:25:56;0.47;;;0.40;;
12703;SDS011;6416;52.182;7.650;2022-07-10T00:28:21;0.50;;;0.50;;
12703;SDS011;6416;52.182;7.650;2022-07-10T00:30:47;0.57;;;0.40;;
12703;SDS011;6416;52.182;7.650;2022-07-10T00:33:12;0.50;;;0.50;;
12703;SDS011;6416;52.182;7.650;2022-07-10T00:35:38;0.40;;;0.40;;
12703;SDS011;6416;52.182;7.650;2022-07-10T00:38:03;0.40;;;0.40;;
12703;SDS011;6416;52.182;7.650;2022-07-10T00:40:28;0.40;;;0.40;;
12703;SDS011;6416;52.182;7.650;2022-07-10T00:42:54;0.63;;;0.40;;
12703;SDS011;6416;52.182;7.650;2022-07-10T00:45:19;0.73;;;0.63;;
12703;SDS011;6416;52.182;7.650;2022-07-10T00:47:45;0.57;;;0.52;;
12703;SDS011;6416;52.182;7.650;2022-07-10T00:50:10;0.60;;;0.50;;
12703;SDS011;6416;52.182;7.650;2022-07-10T00:52:37;0.43;;;0.40;;
12703;SDS011;6416;52.182;7.650;2022-07-10T00:55:03;0.40;;;0.40;;
12703;SDS011;6416;52.182;7.650;2022-07-10T00:57:29;0.80;;;0.50;;
12703;SDS011;6416;52.182;7.650;2022-07-10T00:59:55;0.50;;;0.50;;
12703;SDS011;6416;52.182;7.650;2022-07-10T01:02:21;1.50;;;0.60;;
12703;SDS011;6416;52.182;7.650;2022-07-10T01:04:47;0.50;;;0.50;;
12703;SDS011;6416;52.182;7.650;2022-07-10T01:07:12;0.52;;;0.45;;
12703;SDS011;6416;52.182;7.650;2022-07-10T01:09:38;0.40;;;0.40;;
12703;SDS011;6416;52.182;7.650;2022-07-10T01:12:03;0.50;;;0.50;;
12703;SDS011;6416;52.182;7.650;2022-07-10T01:14:30;0.40;;;0.40;;
12703;SDS011;6416;52.182;7.650;2022-07-10T01:16:56;0.45;;;0.38;;
12703;SDS011;6416;52.182;7.650;2022-07-10T01:19:25;0.40;;;0.40;;
12703;SDS011;6416;52.182;7.650;2022-07-10T01:21:50;0.80;;;0.50;;
12703;SDS011;6416;52.182;7.650;2022-07-10T01:24:16;0.50;;;0.50;;
12703;SDS011;6416;52.182;7.650;2022-07-10T01:26:41;0.50;;;0.50;;
12703;SDS011;6416;52.182;7.650;2022-07-10T01:29:07;0.30;;;0.30;;
12703;SDS011;6416;52.182;7.650;2022-07-10T01:31:33;0.30;;;0.30;;
12703;SDS011;6416;52.182;7.650;2022-07-10T01:33:59;0.55;;;0.50;;
12703;SDS011;6416;52.182;7.650;2022-07-10T01:36:27;1.08;;;0.60;;
12703;SDS011;6416;52.182;7.650;2022-07-10T01:38:54;0.40;;;0.40;;
12703;SDS011;6416;52.182;7.650;2022-07-10T01:41:20;0.65;;;0.50;;
12703;SDS011;6416;52.182;7.650;2022-07-10T01:43:46;0.88;;;0.50;;
12703;SDS011;6416;52.182;7.650;2022-07-10T01:46:11;0.57;;;0.50;;
12703;SDS011;6416;52.182;7.650;2022-07-10T01:48:38;0.60;;;0.50;;
12703;SDS011;6416;52.182;7.650;2022-07-10T01:51:04;0.50;;;0.40;;
12703;SDS011;6416;52.182;7.650;2022-07-10T01:53:30;0.30;;;0.30;;
12703;SDS011;6416;52.182;7.650;2022-07-10T01:55:56;0.60;;;0.55;;
12703;SDS011;6416;52.182;7.650;2022-07-10T01:58:22;0.45;;;0.45;;
12703;SDS011;6416;52.182;7.650;2022-07-10T02:00:47;0.75;;;0.50;;
12703;SDS011;6416;52.182;7.650;2022-07-10T02:03:13;0.40;;;0.40;;
12703;SDS011;6416;52.182;7.650;2022-07-10T02:05:38;1.15;;;0.55;;
12703;SDS011;6416;52.182;7.650;2022-07-10T02:08:04;0.40;;;0.40;;
12703;SDS011;6416;52.182;7.650;2022-07-10T02:10:29;0.40;;;0.40;;
12703;SDS011;6416;52.182;7.650;2022-07-10T02:12:55;0.98;;;0.55;;
12703;SDS011;6416;52.182;7.650;2022-07-10T02:15:20;0.82;;;0.50;;
12703;SDS011;6416;52.182;7.650;2022-07-10T02:17:46;0.90;;;0.50;;
12703;SDS011;6416;52.182;7.650;2022-07-10T02:20:11;0.35;;;0.35;;
12703;SDS011;6416;52.182;7.650;2022-07-10T02:22:37;0.50;;;0.50;;
12703;SDS011;6416;52.182;7.650;2022-07-10T02:25:03;0.50;;;0.47;;
12703;SDS011;6416;52.182;7.650;2022-07-10T02:27:28;0.40;;;0.40;;
12703;SDS011;6416;52.182;7.650;2022-07-10T02:29:54;0.68;;;0.63;;
12703;SDS011;6416;52.182;7.650;2022-07-10T02:32:19;0.45;;;0.45;;
12703;SDS011;6416;52.182;7.650;2022-07-10T02:34:45;0.45;;;0.40;;
12703;SDS011;6416;52.182;7.650;2022-07-10T02:37:10;0.52;;;0.52;;
12703;SDS011;6416;52.182;7.650;2022-07-10T02:39:36;0.52;;;0.50;;
12703;SDS011;6416;52.182;7.650;2022-07-10T02:42:01;0.30;;;0.30;;
12703;SDS011;6416;52.182;7.650;2022-07-10T02:44:27;0.40;;;0.40;;
12703;SDS011;6416;52.182;7.650;2022-07-10T02:46:52;0.50;;;0.40;;
12703;SDS011;6416;52.182;7.650;2022-07-10T02:49:18;0.50;;;0.50;;
12703;SDS011;6416;52.182;7.650;2022-07-10T02:51:43;0.40;;;0.40;;
12703;SDS011;6416;52.182;7.650;2022-07-10T02:54:09;0.60;;;0.60;;
12703;SDS011;6416;52.182;7.650;2022-07-10T02:56:34;0.40;;;0.40;;
12703;SDS011;6416;52.182;7.650;2022-07-10T02:59:00;0.98;;;0.80;;
12703;SDS011;6416;52.182;7.650;2022-07-10T03:01:25;0.50;;;0.50;;
12703;SDS011;6416;52.182;7.650;2022-07-10T03:03:51;0.43;;;0.40;;
12703;SDS011;6416;52.182;7.650;2022-07-10T03:06:16;0.60;;;0.50;;
12703;SDS011;6416;52.182;7.650;2022-07-10T03:08:42;0.60;;;0.60;;
12703;SDS011;6416;52.182;7.650;2022-07-10T03:11:07;0.45;;;0.38;;
12703;SDS011;6416;52.182;7.650;2022-07-10T03:13:33;0.47;;;0.40;;
12703;SDS011;6416;52.182;7.650;2022-07-10T03:15:58;0.50;;;0.50;;
12703;SDS011;6416;52.182;7.650;2022-07-10T03:18:24;0.40;;;0.40;;
12703;SDS011;6416;52.182;7.650;2022-07-10T03:20:49;0.63;;;0.60;;
12703;SDS011;6416;52.182;7.650;2022-07-10T03:23:15;0.40;;;0.40;;
12703;SDS011;6416;52.182;7.650;2022-07-10T03:25:40;0.47;;;0.47;;
12703;SDS011;6416;52.182;7.650;2022-07-10T03:28:06;0.30;;;0.30;;
12703;SDS011;6416;52.182;7.650;2022-07-10T03:30:31;0.60;;;0.60;;
12703;SDS011;6416;52.182;7.650;2022-07-10T03:32:57;0.43;;;0.43;;
12703;SDS011;6416;52.182;7.650;2022-07-10T03:35:22;0.57;;;0.40;;
12703;SDS011;6416;52.182;7.650;2022-07-10T03:37:48;1.00;;;0.40;;
12703;SDS011;6416;52.182;7.650;2022-07-10T03:40:14;0.40;;;0.40;;
12703;SDS011;6416;52.182;7.650;2022-07-10T03:42:39;1.00;;;0.60;;
12703;SDS011;6416;52.182;7.650;2022-07-10T03:45:05;0.73;;;0.60;;
12703;SDS011;6416;52.182;7.650;2022-07-10T03:47:30;0.43;;;0.43;;
12703;SDS011;6416;52.182;7.650;2022-07-10T03:49:56;0.60;;;0.60;;
12703;SDS011;6416;52.182;7.650;2022-07-10T03:52:21;0.50;;;0.50;;
12703;SDS011;6416;52.182;7.650;2022-07-10T03:54:47;0.82;;;0.60;;
12703;SDS011;6416;52.182;7.650;2022-07-10T03:57:12;0.52;;;0.50;;
12703;SDS011;6416;52.182;7.650;2022-07-10T03:59:38;0.60;;;0.60;;
12703;SDS011;6416;52.182;7.650;2022-07-10T04:02:03;0.50;;;0.50;;
12703;SDS011;6416;52.182;7.650;2022-07-10T04:04:29;0.60;;;0.60;;
12703;SDS011;6416;52.182;7.650;2022-07-10T04:06:54;0.63;;;0.55;;
12703;SDS011;6416;52.182;7.650;2022-07-10T04:09:20;0.52;;;0.40;;
12703;SDS011;6416;52.182;7.650;2022-07-10T04:11:46;0.55;;;0.50;;
12703;SDS011;6416;52.182;7.650;2022-07-10T04:14:11;0.45;;;0.43;;
12703;SDS011;6416;52.182;7.650;2022-07-10T04:16:37;0.70;;;0.40;;
12703;SDS011;6416;52.182;7.650;2022-07-10T04:19:02;0.40;;;0.40;;
12703;SDS011;6416;52.182;7.650;2022-07-10T04:21:28;0.93;;;0.60;;
12703;SDS011;6416;52.182;7.650;2022-07-10T04:23:53;0.40;;;0.40;;
12703;SDS011;6416;52.182;7.650;2022-07-10T04:26:19;0.60;;;0.50;;
12703;SDS011;6416;52.182;7.650;2022-07-10T04:28:45;0.70;;;0.50;;
12703;SDS011;6416;52.182;7.650;2022-07-10T04:31:10;0.40;;;0.40;;
12703;SDS011;6416;52.182;7.650;2022-07-10T04:33:36;0.80;;;0.70;;
12703;SDS011;6416;52.182;7.650;2022-07-10T04:36:01;0.50;;;0.50;;
12703;SDS011;6416;52.182;7.650;2022-07-10T04:38:27;1.38;;;0.65;;
12703;SDS011;6416;52.182;7.650;2022-07-10T04:40:52;0.90;;;0.40;;
12703;SDS011;6416;52.182;7.650;2022-07-10T04:43:18;1.00;;;0.65;;
12703;SDS011;6416;52.182;7.650;2022-07-10T04:45:43;0.60;;;0.45;;
12703;SDS011;6416;52.182;7.650;2022-07-10T04:48:08;0.43;;;0.43;;
12703;SDS011;6416;52.182;7.650;2022-07-10T04:50:34;0.95;;;0.70;;
12703;SDS011;6416;52.182;7.650;2022-07-10T04:52:59;0.50;;;0.45;;
12703;SDS011;6416;52.182;7.650;2022-07-10T04:55:25;0.90;;;0.60;;
12703;SDS011;6416;52.182;7.650;2022-07-10T04:57:51;0.75;;;0.60;;
12703;SDS011;6416;52.182;7.650;2022-07-10T05:00:16;0.40;;;0.40;;
12703;SDS011;6416;52.182;7.650;2022-07-10T05:02:42;0.40;;;0.40;;
12703;SDS011;6416;52.182;7.650;2022-07-10T05:05:07;0.45;;;0.45;;
12703;SDS011;6416;52.182;7.650;2022-07-10T05:07:33;0.40;;;0.40;;
12703;SDS011;6416;52.182;7.650;2022-07-10T05:09:59;0.82;;;0.47;;
12703;SDS011;6416;52.182;7.650;2022-07-10T05:12:25;0.57;;;0.57;;
12703;SDS011;6416;52.182;7.650;2022-07-10T05:14:50;0.50;;;0.50;;
12703;SDS011;6416;52.182;7.650;2022-07-10T05:17:16;0.43;;;0.43;;
12703;SDS011;6416;52.182;7.650;2022-07-10T05:19:41;0.50;;;0.50;;
12703;SDS011;6416;52.182;7.650;2022-07-10T05:22:07;0.40;;;0.40;;
12703;SDS011;6416;52.182;7.650;2022-07-10T05:24:32;0.52;;;0.47;;
12703;SDS011;6416;52.182;7.650;2022-07-10T05:26:58;0.50;;;0.50;;
12703;SDS011;6416;52.182;7.650;2022-07-10T05:29:23;1.00;;;0.57;;
12703;SDS011;6416;52.182;7.650;2022-07-10T05:31:49;1.33;;;0.50;;
12703;SDS011;6416;52.182;7.650;2022-07-10T05:34:14;0.40;;;0.40;;
12703;SDS011;6416;52.182;7.650;2022-07-10T05:36:40;0.65;;;0.50;;
12703;SDS011;6416;52.182;7.650;2022-07-10T05:39:05;1.33;;;0.55;;
12703;SDS011;6416;52.182;7.650;2022-07-10T05:41:31;0.50;;;0.50;;
12703;SDS011;6416;52.182;7.650;2022-07-10T05:43:56;0.73;;;0.40;;
12703;SDS011;6416;52.182;7.650;2022-07-10T05:46:21;0.45;;;0.45;;
12703;SDS011;6416;52.182;7.650;2022-07-10T05:48:47;0.77;;;0.50;;
12703;SDS011;6416;52.182;7.650;2022-07-10T05:51:12;0.60;;;0.50;;
12703;SDS011;6416;52.182;7.650;2022-07-10T05:53:38;0.55;;;0.50;;
12703;SDS011;6416;52.182;7.650;2022-07-10T05:56:03;1.02;;;0.55;;
12703;SDS011;6416;52.182;7.650;2022-07-10T05:58:29;0.80;;;0.52;;
12703;SDS011;6416;52.182;7.650;2022-07-10T06:00:55;0.40;;;0.40;;
12703;SDS011;6416;52.182;7.650;2022-07-10T06:03:21;0.93;;;0.40;;
12703;SDS011;6416;52.182;7.650;2022-07-10T06:05:46;0.55;;;0.40;;
12703;SDS011;6416;52.182;7.650;2022-07-10T06:08:12;0.40;;;0.40;;
12703;SDS011;6416;52.182;7.650;2022-07-10T06:10:38;0.30;;;0.30;;
12703;SDS011;6416;52.182;7.650;2022-07-10T06:13:04;0.45;;;0.43;;
12703;SDS011;6416;52.182;7.650;2022-07-10T06:15:30;0.47;;;0.47;;
12703;SDS011;6416;52.182;7.650;2022-07-10T06:17:56;0.85;;;0.50;;
12703;SDS011;6416;52.182;7.650;2022-07-10T06:20:22;0.47;;;0.43;;
12703;SDS011;6416;52.182;7.650;2022-07-10T06:22:47;0.50;;;0.50;;
12703;SDS011;6416;52.182;7.650;2022-07-10T06:25:13;0.50;;;0.50;;
12703;SDS011;6416;52.182;7.650;2022-07-10T06:27:38;0.40;;;0.40;;
12703;SDS011;6416;52.182;7.650;2022-07-10T06:30:04;3.03;;;0.60;;
12703;SDS011;6416;52.182;7.650;2022-07-10T06:32:30;0.50;;;0.50;;
12703;SDS011;6416;52.182;7.650;2022-07-10T06:34:55;0.52;;;0.52;;
12703;SDS011;6416;52.182;7.650;2022-07-10T06:37:21;1.15;;;0.60;;
12703;SDS011;6416;52.182;7.650;2022-07-10T06:39:47;1.05;;;0.50;;
12703;SDS011;6416;52.182;7.650;2022-07-10T06:42:13;0.30;;;0.30;;
12703;SDS011;6416;52.182;7.650;2022-07-10T06:44:38;0.50;;;0.43;;
12703;SDS011;6416;52.182;7.650;2022-07-10T06:47:05;0.32;;;0.32;;
12703;SDS011;6416;52.182;7.650;2022-07-10T06:49:31;0.30;;;0.30;;
12703;SDS011;6416;52.182;7.650;2022-07-10T06:51:57;0.40;;;0.40;;
12703;SDS011;6416;52.182;7.650;2022-07-10T06:54:22;1.25;;;0.57;;
12703;SDS011;6416;52.182;7.650;2022-07-10T06:56:48;0.60;;;0.35;;
12703;SDS011;6416;52.182;7.650;2022-07-10T06:59:14;0.40;;;0.40;;
12703;SDS011;6416;52.182;7.650;2022-07-10T07:01:39;0.50;;;0.50;;
12703;SDS011;6416;52.182;7.650;2022-07-10T07:04:04;0.85;;;0.50;;
12703;SDS011;6416;52.182;7.650;2022-07-10T07:06:30;0.93;;;0.60;;
12703;SDS011;6416;52.182;7.650;2022-07-10T07:08:55;0.57;;;0.43;;
12703;SDS011;6416;52.182;7.650;2022-07-10T07:11:21;0.90;;;0.65;;
12703;SDS011;6416;52.182;7.650;2022-07-10T07:13:46;0.30;;;0.30;;
12703;SDS011;6416;52.182;7.650;2022-07-10T07:16:12;0.50;;;0.50;;
12703;SDS011;6416;52.182;7.650;2022-07-10T07:18:37;0.50;;;0.40;;
12703;SDS011;6416;52.182;7.650;2022-07-10T07:21:03;0.50;;;0.50;;
12703;SDS011;6416;52.182;7.650;2022-07-10T07:23:28;0.40;;;0.40;;
12703;SDS011;6416;52.182;7.650;2022-07-10T07:25:54;0.38;;;0.38;;
12703;SDS011;6416;52.182;7.650;2022-07-10T07:28:19;0.60;;;0.50;;
12703;SDS011;6416;52.182;7.650;2022-07-10T07:30:45;0.38;;;0.38;;
12703;SDS011;6416;52.182;7.650;2022-07-10T07:33:12;0.50;;;0.30;;
12703;SDS011;6416;52.182;7.650;2022-07-10T07:35:37;0.77;;;0.50;;
12703;SDS011;6416;52.182;7.650;2022-07-10T07:38:03;0.40;;;0.40;;
12703;SDS011;6416;52.182;7.650;2022-07-10T07:40:29;0.45;;;0.40;;
12703;SDS011;6416;52.182;7.650;2022-07-10T07:42:55;0.47;;;0.40;;
12703;SDS011;6416;52.182;7.650;2022-07-10T07:45:21;0.60;;;0.50;;
12703;SDS011;6416;52.182;7.650;2022-07-10T07:50:18;0.88;;;0.50;;
12703;SDS011;6416;52.182;7.650;2022-07-10T07:52:45;0.63;;;0.50;;
12703;SDS011;6416;52.182;7.650;2022-07-10T07:55:11;0.70;;;0.50;;
12703;SDS011;6416;52.182;7.650;2022-07-10T07:57:38;0.50;;;0.50;;
12703;SDS011;6416;52.182;7.650;2022-07-10T08:00:04;0.38;;;0.38;;
12703;SDS011;6416;52.182;7.650;2022-07-10T08:02:31;0.75;;;0.52;;
12703;SDS011;6416;52.182;7.650;2022-07-10T08:04:56;0.50;;;0.50;;
12703;SDS011;6416;52.182;7.650;2022-07-10T08:07:21;0.52;;;0.47;;
12703;SDS011;6416;52.182;7.650;2022-07-10T08:09:47;0.75;;;0.60;;
12703;SDS011;6416;52.182;7.650;2022-07-10T08:12:12;0.45;;;0.43;;
12703;SDS011;6416;52.182;7.650;2022-07-10T08:14:38;0.90;;;0.60;;
12703;SDS011;6416;52.182;7.650;2022-07-10T08:17:03;0.68;;;0.40;;
12703;SDS011;6416;52.182;7.650;2022-07-10T08:19:29;0.85;;;0.50;;
12703;SDS011;6416;52.182;7.650;2022-07-10T08:21:54;0.80;;;0.55;;
12703;SDS011;6416;52.182;7.650;2022-07-10T08:24:20;0.40;;;0.40;;
12703;SDS011;6416;52.182;7.650;2022-07-10T08:26:46;0.82;;;0.50;;
12703;SDS011;6416;52.182;7.650;2022-07-10T08:29:12;1.02;;;0.40;;
12703;SDS011;6416;52.182;7.650;2022-07-10T08:31:37;0.57;;;0.50;;
12703;SDS011;6416;52.182;7.650;2022-07-10T08:34:03;0.50;;;0.50;;
12703;SDS011;6416;52.182;7.650;2022-07-10T08:36:28;2.35;;;0.60;;
12703;SDS011;6416;52.182;7.650;2022-07-10T08:38:54;0.55;;;0.50;;
12703;SDS011;6416;52.182;7.650;2022-07-10T08:41:24;0.50;;;0.50;;
12703;SDS011;6416;52.182;7.650;2022-07-10T08:43:50;0.77;;;0.40;;
12703;SDS011;6416;52.182;7.650;2022-07-10T08:46:16;1.17;;;0.55;;
12703;SDS011;6416;52.182;7.650;2022-07-10T08:48:42;0.30;;;0.30;;
12703;SDS011;6416;52.182;7.650;2022-07-10T08:51:16;0.70;;;0.60;;
12703;SDS011;6416;52.182;7.650;2022-07-10T08:53:49;0.50;;;0.50;;
12703;SDS011;6416;52.182;7.650;2022-07-10T08:56:16;0.70;;;0.50;;
12703;SDS011;6416;52.182;7.650;2022-07-10T08:58:42;0.30;;;0.30;;
12703;SDS011;6416;52.182;7.650;2022-07-10T09:01:08;0.40;;;0.40;;
12703;SDS011;6416;52.182;7.650;2022-07-10T09:03:33;0.52;;;0.50;;
12703;SDS011;6416;52.182;7.650;2022-07-10T09:05:59;0.63;;;0.43;;
12703;SDS011;6416;52.182;7.650;2022-07-10T09:08:25;0.65;;;0.40;;
12703;SDS011;6416;52.182;7.650;2022-07-10T09:10:51;0.82;;;0.63;;
12703;SDS011;6416;52.182;7.650;2022-07-10T09:13:17;0.57;;;0.40;;
12703;SDS011;6416;52.182;7.650;2022-07-10T09:15:47;0.52;;;0.50;;
12703;SDS011;6416;52.182;7.650;2022-07-10T09:18:17;0.90;;;0.50;;
12703;SDS011;6416;52.182;7.650;2022-07-10T09:20:43;0.47;;;0.47;;
12703;SDS011;6416;52.182;7.650;2022-07-10T09:23:19;0.73;;;0.52;;
12703;SDS011;6416;52.182;7.650;2022-07-10T09:25:46;0.35;;;0.35;;
12703;SDS011;6416;52.182;7.650;2022-07-10T09:28:12;1.70;;;0.70;;
12703;SDS011;6416;52.182;7.650;2022-07-10T09:30:40;0.47;;;0.47;;
12703;SDS011;6416;52.182;7.650;2022-07-10T09:35:53;0.45;;;0.40;;
12703;SDS011;6416;52.182;7.650;2022-07-10T09:41:12;0.50;;;0.50;;
12703;SDS011;6416;52.182;7.650;2022-07-10T09:43:49;0.40;;;0.40;;
12703;SDS011;6416;52.182;7.650;2022-07-10T09:46:26;0.77;;;0.60;;
12703;SDS011;6416;52.182;7.650;2022-07-10T09:49:28;0.40;;;0.40;;
12703;SDS011;6416;52.182;7.650;2022-07-10T09:51:52;1.40;;;0.52;;
12703;SDS011;6416;52.182;7.650;2022-07-10T09:54:18;0.90;;;0.60;;
12703;SDS011;6416;52.182;7.650;2022-07-10T09:56:45;0.60;;;0.60;;
12703;SDS011;6416;52.182;7.650;2022-07-10T09:59:16;0.40;;;0.40;;
12703;SDS011;6416;52.182;7.650;2022-07-10T10:01:46;0.93;;;0.50;;
12703;SDS011;6416;52.182;7.650;2022-07-10T10:04:14;1.67;;;0.70;;
12703;SDS011;6416;52.182;7.650;2022-07-10T10:06:41;0.70;;;0.52;;
12703;SDS011;6416;52.182;7.650;2022-07-10T10:09:26;2.30;;;0.73;;
12703;SDS011;6416;52.182;7.650;2022-07-10T10:11:59;1.02;;;0.57;;
12703;SDS011;6416;52.182;7.650;2022-07-10T10:14:29;0.60;;;0.60;;
12703;SDS011;6416;52.182;7.650;2022-07-10T10:16:56;0.98;;;0.50;;
12703;SDS011;6416;52.182;7.650;2022-07-10T10:19:23;2.25;;;0.60;;
12703;SDS011;6416;52.182;7.650;2022-07-10T10:21:49;0.80;;;0.50;;
12703;SDS011;6416;52.182;7.650;2022-07-10T10:24:15;1.20;;;0.60;;
12703;SDS011;6416;52.182;7.650;2022-07-10T10:26:42;0.50;;;0.50;;
12703;SDS011;6416;52.182;7.650;2022-07-10T10:29:09;2.05;;;0.70;;
12703;SDS011;6416;52.182;7.650;2022-07-10T10:31:35;1.17;;;0.60;;
12703;SDS011;6416;52.182;7.650;2022-07-10T10:34:01;2.58;;;0.60;;
12703;SDS011;6416;52.182;7.650;2022-07-10T10:39:01;1.50;;;0.70;;
12703;SDS011;6416;52.182;7.650;2022-07-10T10:41:39;1.27;;;0.60;;
12703;SDS011;6416;52.182;7.650;2022-07-10T10:46:34;0.57;;;0.43;;
12703;SDS011;6416;52.182;7.650;2022-07-10T10:49:04;0.70;;;0.60;;
12703;SDS011;6416;52.182;7.650;2022-07-10T10:54:21;2.28;;;1.00;;
12703;SDS011;6416;52.182;7.650;2022-07-10T10:57:10;0.57;;;0.50;;
12703;SDS011;6416;52.182;7.650;2022-07-10T10:59:45;0.50;;;0.50;;
12703;SDS011;6416;52.182;7.650;2022-07-10T11:12:56;0.55;;;0.55;;
12703;SDS011;6416;52.182;7.650;2022-07-10T11:15:23;2.67;;;0.60;;
12703;SDS011;6416;52.182;7.650;2022-07-10T11:17:50;1.40;;;0.70;;
12703;SDS011;6416;52.182;7.650;2022-07-10T11:20:15;1.13;;;0.70;;
12703;SDS011;6416;52.182;7.650;2022-07-10T11:25:48;0.57;;;0.52;;
12703;SDS011;6416;52.182;7.650;2022-07-10T11:28:17;0.80;;;0.70;;
12703;SDS011;6416;52.182;7.650;2022-07-10T11:30:50;0.60;;;0.60;;
12703;SDS011;6416;52.182;7.650;2022-07-10T11:33:16;2.15;;;0.70;;
12703;SDS011;6416;52.182;7.650;2022-07-10T11:35:45;0.88;;;0.77;;
12703;SDS011;6416;52.182;7.650;2022-07-10T11:38:17;0.80;;;0.75;;
12703;SDS011;6416;52.182;7.650;2022-07-10T11:40:45;1.13;;;0.70;;
12703;SDS011;6416;52.182;7.650;2022-07-10T11:43:10;0.68;;;0.60;;
12703;SDS011;6416;52.182;7.650;2022-07-10T11:45:36;4.60;;;1.10;;
12703;SDS011;6416;52.182;7.650;2022-07-10T11:48:02;2.10;;;0.68;;
12703;SDS011;6416;52.182;7.650;2022-07-10T11:50:33;1.60;;;0.90;;
12703;SDS011;6416;52.182;7.650;2022-07-10T11:53:00;1.42;;;0.70;;
12703;SDS011;6416;52.182;7.650;2022-07-10T11:55:26;0.98;;;0.60;;
12703;SDS011;6416;52.182;7.650;2022-07-10T11:57:51;1.27;;;0.70;;
12703;SDS011;6416;52.182;7.650;2022-07-10T12:00:20;1.27;;;0.90;;
12703;SDS011;6416;52.182;7.650;2022-07-10T12:02:46;2.03;;;0.80;;
12703;SDS011;6416;52.182;7.650;2022-07-10T12:07:56;1.60;;;1.00;;
12703;SDS011;6416;52.182;7.650;2022-07-10T12:10:25;1.42;;;0.90;;
12703;SDS011;6416;52.182;7.650;2022-07-10T12:12:51;2.30;;;1.10;;
12703;SDS011;6416;52.182;7.650;2022-07-10T12:15:32;1.65;;;0.80;;
12703;SDS011;6416;52.182;7.650;2022-07-10T12:17:59;2.20;;;0.88;;
12703;SDS011;6416;52.182;7.650;2022-07-10T12:20:25;0.80;;;0.60;;
12703;SDS011;6416;52.182;7.650;2022-07-10T12:22:51;1.35;;;0.93;;
12703;SDS011;6416;52.182;7.650;2022-07-10T12:25:16;1.10;;;0.90;;
12703;SDS011;6416;52.182;7.650;2022-07-10T12:27:42;1.52;;;0.85;;
12703;SDS011;6416;52.182;7.650;2022-07-10T12:30:08;0.75;;;0.65;;
12703;SDS011;6416;52.182;7.650;2022-07-10T12:32:33;1.73;;;0.80;;
12703;SDS011;6416;52.182;7.650;2022-07-10T12:34:59;1.33;;;0.70;;
12703;SDS011;6416;52.182;7.650;2022-07-10T12:37:24;1.92;;;0.82;;
12703;SDS011;6416;52.182;7.650;2022-07-10T12:39:51;2.03;;;0.82;;
12703;SDS011;6416;52.182;7.650;2022-07-10T12:42:24;0.80;;;0.70;;
12703;SDS011;6416;52.182;7.650;2022-07-10T12:44:49;0.73;;;0.65;;
12703;SDS011;6416;52.182;7.650;2022-07-10T12:47:19;2.08;;;0.82;;
12703;SDS011;6416;52.182;7.650;2022-07-10T12:52:24;1.55;;;0.90;;
12703;SDS011;6416;52.182;7.650;2022-07-10T12:57:57;1.67;;;0.80;;
12703;SDS011;6416;52.182;7.650;2022-07-10T13:02:57;1.55;;;0.90;;
12703;SDS011;6416;52.182;7.650;2022-07-10T13:05:31;1.30;;;0.73;;
12703;SDS011;6416;52.182;7.650;2022-07-10T13:08:43;1.33;;;0.80;;
12703;SDS011;6416;52.182;7.650;2022-07-10T13:10:50;1.98;;;0.80;;
12703;SDS011;6416;52.182;7.650;2022-07-10T13:13:17;1.63;;;0.90;;
12703;SDS011;6416;52.182;7.650;2022-07-10T13:15:43;1.85;;;0.80;;
12703;SDS011;6416;52.182;7.650;2022-07-10T13:18:20;1.60;;;0.80;;
12703;SDS011;6416;52.182;7.650;2022-07-10T13:20:47;2.13;;;1.05;;
12703;SDS011;6416;52.182;7.650;2022-07-10T13:23:14;1.35;;;0.80;;
12703;SDS011;6416;52.182;7.650;2022-07-10T13:25:40;1.60;;;0.80;;
12703;SDS011;6416;52.182;7.650;2022-07-10T13:28:06;1.13;;;0.90;;
12703;SDS011;6416;52.182;7.650;2022-07-10T13:30:32;1.63;;;0.82;;
12703;SDS011;6416;52.182;7.650;2022-07-10T13:32:59;1.58;;;0.80;;
12703;SDS011;6416;52.182;7.650;2022-07-10T13:35:27;0.82;;;0.80;;
12703;SDS011;6416;52.182;7.650;2022-07-10T13:37:56;1.23;;;0.90;;
12703;SDS011;6416;52.182;7.650;2022-07-10T13:40:23;1.13;;;0.90;;
12703;SDS011;6416;52.182;7.650;2022-07-10T13:42:48;0.90;;;0.80;;
12703;SDS011;6416;52.182;7.650;2022-07-10T13:45:14;0.55;;;0.55;;
12703;SDS011;6416;52.182;7.650;2022-07-10T13:47:39;2.53;;;0.98;;
12703;SDS011;6416;52.182;7.650;2022-07-10T13:50:05;2.50;;;0.77;;
12703;SDS011;6416;52.182;7.650;2022-07-10T13:52:31;0.98;;;0.85;;
12703;SDS011;6416;52.182;7.650;2022-07-10T13:54:56;1.25;;;0.88;;
12703;SDS011;6416;52.182;7.650;2022-07-10T13:57:22;1.17;;;0.77;;
12703;SDS011;6416;52.182;7.650;2022-07-10T13:59:48;1.88;;;0.82;;
12703;SDS011;6416;52.182;7.650;2022-07-10T14:02:14;1.05;;;0.80;;
12703;SDS011;6416;52.182;7.650;2022-07-10T14:04:39;1.55;;;0.95;;
12703;SDS011;6416;52.182;7.650;2022-07-10T14:07:05;1.02;;;0.70;;
12703;SDS011;6416;52.182;7.650;2022-07-10T14:09:30;1.65;;;0.90;;
12703;SDS011;6416;52.182;7.650;2022-07-10T14:11:56;1.45;;;1.00;;
12703;SDS011;6416;52.182;7.650;2022-07-10T14:14:21;1.35;;;0.70;;
12703;SDS011;6416;52.182;7.650;2022-07-10T14:16:47;1.55;;;0.95;;
12703;SDS011;6416;52.182;7.650;2022-07-10T14:19:12;1.27;;;0.85;;
12703;SDS011;6416;52.182;7.650;2022-07-10T14:21:39;0.90;;;0.80;;
12703;SDS011;6416;52.182;7.650;2022-07-10T14:24:05;1.08;;;0.95;;
12703;SDS011;6416;52.182;7.650;2022-07-10T14:26:31;1.30;;;0.73;;
12703;SDS011;6416;52.182;7.650;2022-07-10T14:28:56;0.90;;;0.80;;
12703;SDS011;6416;52.182;7.650;2022-07-10T14:31:21;2.60;;;1.10;;
12703;SDS011;6416;52.182;7.650;2022-07-10T14:33:47;1.17;;;0.82;;
12703;SDS011;6416;52.182;7.650;2022-07-10T14:36:12;0.85;;;0.75;;
12703;SDS011;6416;52.182;7.650;2022-07-10T14:38:38;0.90;;;0.70;;
12703;SDS011;6416;52.182;7.650;2022-07-10T14:41:04;1.10;;;0.95;;
12703;SDS011;6416;52.182;7.650;2022-07-10T14:43:30;1.02;;;0.80;;
12703;SDS011;6416;52.182;7.650;2022-07-10T14:45:55;1.33;;;0.77;;
12703;SDS011;6416;52.182;7.650;2022-07-10T14:48:20;1.20;;;0.90;;
12703;SDS011;6416;52.182;7.650;2022-07-10T14:50:46;3.22;;;0.90;;
12703;SDS011;6416;52.182;7.650;2022-07-10T14:53:11;1.05;;;0.60;;
12703;SDS011;6416;52.182;7.650;2022-07-10T14:55:37;1.05;;;0.80;;
12703;SDS011;6416;52.182;7.650;2022-07-10T14:58:02;3.80;;;0.85;;
12703;SDS011;6416;52.182;7.650;2022-07-10T15:00:28;2.35;;;0.90;;
12703;SDS011;6416;52.182;7.650;2022-07-10T15:02:53;0.80;;;0.70;;
12703;SDS011;6416;52.182;7.650;2022-07-10T15:05:19;0.90;;;0.63;;
12703;SDS011;6416;52.182;7.650;2022-07-10T15:07:44;1.60;;;0.90;;
12703;SDS011;6416;52.182;7.650;2022-07-10T15:10:10;1.25;;;0.70;;
12703;SDS011;6416;52.182;7.650;2022-07-10T15:12:35;1.10;;;0.70;;
12703;SDS011;6416;52.182;7.650;2022-07-10T15:15:01;2.05;;;0.70;;
12703;SDS011;6416;52.182;7.650;2022-07-10T15:17:26;1.23;;;0.63;;
12703;SDS011;6416;52.182;7.650;2022-07-10T15:19:52;0.93;;;0.70;;
12703;SDS011;6416;52.182;7.650;2022-07-10T15:22:17;1.30;;;0.75;;
12703;SDS011;6416;52.182;7.650;2022-07-10T15:24:43;1.85;;;0.90;;
12703;SDS011;6416;52.182;7.650;2022-07-10T15:27:08;0.70;;;0.70;;
12703;SDS011;6416;52.182;7.650;2022-07-10T15:29:34;0.90;;;0.60;;
12703;SDS011;6416;52.182;7.650;2022-07-10T15:31:59;1.83;;;0.90;;
12703;SDS011;6416;52.182;7.650;2022-07-10T15:34:25;0.63;;;0.60;;
12703;SDS011;6416;52.182;7.650;2022-07-10T15:36:50;1.13;;;0.77;;